Time;durP1;ratioP1;P1;durP2;ratioP2;P2;SDS_P1;SDS_P2;PMS_P1;PMS_P2;Temp;Humidity;BMP_temperature;BMP_pressure;BME280_temperature;BME280_humidity;BME280_pressure;Samples;Min_cycle;Max_cycle;Signal;HPM_P1;HPM_P2
2021/05/20 00:00:05;;;;;;;0.10;0.10;;;8.00;99.90;;;;;;5086989;28;20714;-79
2021/05/20 00:02:31;;;;;;;0.10;0.10;;;7.90;99.90;;;;;;5075682;28;20024;-79
2021/05/20 00:04:57;;;;;;;0.03;0.03;;;7.70;99.90;;;;;;5070586;28;20626;-79
2021/05/20 00:07:23;;;;;;;0.22;0.22;;;7.40;99.90;;;;;;5080119;28;20035;-79
2021/05/20 00:09:48;;;;;;;0.10;0.10;;;7.20;99.90;;;;;;5075973;28;20530;-79
2021/05/20 00:12:14;;;;;;;0.00;0.00;;;7.20;99.90;;;;;;5080057;28;20066;-79
2021/05/20 00:14:52;;;;;;;0.10;0.10;;;7.10;99.90;;;;;;5069136;28;20473;-79
2021/05/20 00:17:26;;;;;;;0.20;0.20;;;7.10;99.90;;;;;;5087571;28;20111;-79
2021/05/20 00:19:51;;;;;;;0.90;0.60;;;7.00;99.90;;;;;;5088947;28;20081;-79
2021/05/20 00:22:17;;;;;;;0.10;0.10;;;6.90;99.90;;;;;;5079882;28;20040;-79
2021/05/20 00:24:43;;;;;;;0.00;0.00;;;7.00;99.90;;;;;;5083316;28;20028;-79
2021/05/20 00:27:09;;;;;;;0.08;0.08;;;6.90;99.90;;;;;;5083269;28;20101;-79
2021/05/20 00:29:34;;;;;;;0.10;0.10;;;7.00;99.90;;;;;;5076496;28;20016;-79
2021/05/20 00:32:00;;;;;;;0.10;0.10;;;6.90;99.90;;;;;;5076234;28;20029;-79
2021/05/20 00:34:26;;;;;;;0.03;0.03;;;6.90;99.90;;;;;;5079605;28;20016;-79
2021/05/20 00:36:52;;;;;;;0.00;0.00;;;7.00;99.90;;;;;;5072239;28;20432;-79
2021/05/20 00:39:17;;;;;;;0.10;0.10;;;7.10;99.90;;;;;;5084987;28;20598;-79
2021/05/20 00:41:43;;;;;;;0.08;0.08;;;7.20;99.90;;;;;;5084213;28;20030;-80
2021/05/20 00:44:17;;;;;;;0.10;0.10;;;7.30;99.90;;;;;;5073702;28;20053;-79
2021/05/20 00:46:58;;;;;;;0.10;0.10;;;7.20;99.90;;;;;;5069136;28;20447;-78
2021/05/20 00:49:24;;;;;;;0.10;0.10;;;7.30;99.90;;;;;;5069031;28;20029;-79
2021/05/20 00:51:50;;;;;;;0.10;0.10;;;7.40;99.90;;;;;;5078767;28;20107;-79
2021/05/20 00:54:16;;;;;;;0.08;0.08;;;7.70;99.90;;;;;;5076385;28;20834;-79
2021/05/20 00:56:43;;;;;;;0.10;0.10;;;7.80;99.90;;;;;;5072988;28;20051;-79
2021/05/20 00:59:09;;;;;;;0.10;0.10;;;7.80;99.90;;;;;;5081252;28;20023;-79
2021/05/20 01:01:35;;;;;;;0.10;0.10;;;7.70;99.90;;;;;;5077925;28;20050;-79
2021/05/20 01:04:00;;;;;;;0.00;0.00;;;7.50;99.90;;;;;;5081366;28;20037;-79
2021/05/20 01:06:27;;;;;;;0.10;0.10;;;7.60;99.90;;;;;;5071345;28;20095;-79
2021/05/20 01:08:57;;;;;;;0.13;0.13;;;7.50;99.90;;;;;;5082483;28;20023;-79
2021/05/20 01:11:24;;;;;;;0.10;0.10;;;7.40;99.90;;;;;;5077526;28;20043;-79
2021/05/20 01:13:49;;;;;;;0.03;0.03;;;7.40;99.90;;;;;;5084621;28;20891;-79
2021/05/20 01:16:15;;;;;;;0.10;0.10;;;7.40;99.90;;;;;;5076485;28;20107;-79
2021/05/20 01:18:41;;;;;;;0.10;0.10;;;7.40;99.90;;;;;;5078080;28;20030;-79
2021/05/20 01:21:07;;;;;;;0.10;0.10;;;7.10;99.90;;;;;;5073439;28;20106;-79
2021/05/20 01:23:32;;;;;;;0.10;0.10;;;6.90;99.90;;;;;;5080906;28;20119;-79
2021/05/20 01:26:02;;;;;;;0.00;0.00;;;6.80;99.90;;;;;;5085524;28;20166;-79
2021/05/20 01:28:30;;;;;;;0.05;0.05;;;6.80;99.90;;;;;;5081104;28;20693;-79
2021/05/20 01:30:56;;;;;;;0.10;0.10;;;6.70;99.90;;;;;;5071035;28;20545;-78
2021/05/20 01:33:22;;;;;;;0.00;0.00;;;6.70;99.90;;;;;;5070026;28;20024;-79
2021/05/20 01:35:48;;;;;;;0.00;0.00;;;6.70;99.90;;;;;;5080961;28;20016;-79
2021/05/20 01:41:03;;;;;;;0.10;0.10;;;6.80;99.90;;;;;;5070317;28;20039;-79
2021/05/20 01:43:30;;;;;;;0.03;0.03;;;6.70;99.90;;;;;;5072042;28;20024;-79
2021/05/20 01:46:00;;;;;;;;;;;6.70;99.90;;;;;;5078632;28;20031;-79
2021/05/20 01:48:33;;;;;;;0.10;0.10;;;6.80;99.90;;;;;;5078190;28;19912;-79
2021/05/20 01:51:10;;;;;;;0.10;0.10;;;6.90;99.90;;;;;;5062340;28;20035;-79
2021/05/20 01:53:38;;;;;;;0.00;0.00;;;6.70;99.90;;;;;;5083375;28;20047;-79
2021/05/20 01:56:04;;;;;;;0.08;0.08;;;6.80;99.90;;;;;;5076066;28;20403;-79
2021/05/20 01:58:30;;;;;;;0.00;0.00;;;6.90;99.90;;;;;;5084947;28;20028;-79
2021/05/20 02:00:56;;;;;;;0.03;0.03;;;6.90;99.90;;;;;;5079211;28;20033;-79
2021/05/20 02:03:23;;;;;;;0.10;0.10;;;6.80;99.90;;;;;;5084137;28;20388;-79
2021/05/20 02:05:49;;;;;;;0.10;0.10;;;6.70;99.90;;;;;;5065824;28;20021;-79
2021/05/20 02:08:15;;;;;;;0.15;0.15;;;6.70;99.90;;;;;;5073944;28;20034;-79
2021/05/20 02:10:41;;;;;;;0.10;0.10;;;6.60;99.90;;;;;;5078752;28;20588;-79
2021/05/20 02:13:07;;;;;;;0.10;0.10;;;6.90;99.90;;;;;;5085176;28;20032;-79
2021/05/20 02:15:34;;;;;;;0.10;0.10;;;7.00;99.90;;;;;;5086522;28;20051;-79
2021/05/20 02:18:00;;;;;;;0.00;0.00;;;6.80;99.90;;;;;;5079103;28;20045;-79
2021/05/20 02:20:26;;;;;;;0.00;0.00;;;6.60;99.90;;;;;;5081380;28;20032;-79
2021/05/20 02:22:52;;;;;;;0.00;0.00;;;6.70;99.90;;;;;;5077320;28;20115;-79
2021/05/20 02:25:18;;;;;;;0.10;0.10;;;6.70;99.90;;;;;;5078091;28;20108;-79
2021/05/20 02:27:44;;;;;;;0.10;0.10;;;6.40;99.90;;;;;;5085704;28;20020;-79
2021/05/20 02:30:12;;;;;;;0.00;0.00;;;6.40;99.90;;;;;;5078321;28;20043;-79
2021/05/20 02:32:38;;;;;;;0.17;0.17;;;6.50;99.90;;;;;;5068975;28;20017;-78
2021/05/20 02:35:05;;;;;;;0.08;0.08;;;6.40;99.90;;;;;;5081157;28;20039;-78
2021/05/20 02:37:36;;;;;;;0.00;0.00;;;6.30;99.90;;;;;;5071577;28;20025;-78
2021/05/20 02:40:25;;;;;;;0.05;0.05;;;6.30;99.90;;;;;;5068222;28;20056;-79
2021/05/20 02:42:51;;;;;;;0.00;0.00;;;6.20;99.90;;;;;;5077374;28;20031;-79
2021/05/20 02:45:20;;;;;;;0.10;0.10;;;6.20;99.90;;;;;;5067292;28;20035;-78
2021/05/20 02:47:52;;;;;;;0.00;0.00;;;6.00;99.90;;;;;;5071637;28;20025;-79
2021/05/20 02:50:22;;;;;;;0.00;0.00;;;6.00;99.90;;;;;;5069973;28;20060;-79
2021/05/20 02:52:48;;;;;;;0.10;0.10;;;6.10;99.90;;;;;;5072073;28;20073;-79
2021/05/20 02:55:16;;;;;;;0.10;0.10;;;6.10;99.90;;;;;;5077424;28;20028;-79
2021/05/20 02:57:44;;;;;;;0.10;0.10;;;6.20;99.90;;;;;;5078028;28;20028;-78
2021/05/20 03:00:11;;;;;;;0.10;0.10;;;6.40;99.90;;;;;;5073782;28;20699;-78
2021/05/20 03:02:37;;;;;;;0.10;0.10;;;6.30;99.90;;;;;;5078929;28;20024;-78
2021/05/20 03:05:07;;;;;;;0.10;0.10;;;6.30;99.90;;;;;;5070717;28;20101;-78
2021/05/20 03:07:36;;;;;;;0.00;0.00;;;6.20;99.90;;;;;;5077382;28;20063;-79
2021/05/20 03:10:07;;;;;;;0.08;0.08;;;6.30;99.90;;;;;;5080204;28;20030;-78
2021/05/20 03:12:33;;;;;;;0.10;0.10;;;6.30;99.90;;;;;;5087282;28;20112;-79
2021/05/20 03:14:59;;;;;;;0.00;0.00;;;6.40;99.90;;;;;;5075230;28;20147;-79
2021/05/20 03:17:25;;;;;;;0.10;0.10;;;6.20;99.90;;;;;;5085074;28;20563;-79
2021/05/20 03:19:51;;;;;;;0.03;0.03;;;6.10;99.90;;;;;;5074354;28;20020;-79
2021/05/20 03:22:17;;;;;;;0.08;0.08;;;6.00;99.90;;;;;;5085490;28;20549;-79
2021/05/20 03:24:43;;;;;;;0.10;0.10;;;5.80;99.90;;;;;;5085692;28;20515;-79
2021/05/20 03:27:08;;;;;;;0.00;0.00;;;5.80;99.90;;;;;;5086091;28;20032;-79
2021/05/20 03:29:34;;;;;;;0.10;0.10;;;5.80;99.90;;;;;;5074436;28;20082;-79
2021/05/20 03:32:00;;;;;;;0.00;0.00;;;5.80;99.90;;;;;;5082760;28;20043;-78
2021/05/20 03:34:26;;;;;;;0.10;0.10;;;6.00;1.00;;;;;;5083108;28;20024;-78
2021/05/20 03:37:12;;;;;;;0.00;0.00;;;6.10;1.00;;;;;;5076248;28;20055;-78
2021/05/20 03:39:55;;;;;;;0.10;0.10;;;6.10;1.00;;;;;;5078223;28;20020;-78
2021/05/20 03:42:21;;;;;;;0.00;0.00;;;6.10;1.00;;;;;;5083203;28;20131;-79
2021/05/20 03:44:47;;;;;;;0.32;0.32;;;6.10;1.00;;;;;;5073530;28;20023;-78
2021/05/20 03:47:12;;;;;;;0.10;0.10;;;6.10;1.00;;;;;;5082871;28;20082;-78
2021/05/20 03:49:38;;;;;;;0.10;0.10;;;6.10;1.00;;;;;;5080675;28;20036;-78
2021/05/20 03:52:04;;;;;;;0.15;0.15;;;6.00;1.00;;;;;;5086422;28;20074;-78
2021/05/20 03:54:30;;;;;;;0.10;0.10;;;6.10;1.00;;;;;;5076101;28;20105;-79
2021/05/20 03:56:56;;;;;;;0.52;0.52;;;6.10;1.00;;;;;;5078647;28;20052;-78
2021/05/20 03:59:22;;;;;;;0.00;0.00;;;6.00;1.00;;;;;;5078288;28;20036;-78
2021/05/20 04:02:01;;;;;;;0.10;0.10;;;5.90;1.00;;;;;;5081505;28;20613;-78
2021/05/20 04:04:32;;;;;;;0.00;0.00;;;5.80;1.00;;;;;;5069835;28;20036;-78
2021/05/20 04:07:11;;;;;;;0.10;0.10;;;5.80;1.00;;;;;;5069928;28;20823;-78
2021/05/20 04:09:56;;;;;;;0.00;0.00;;;5.70;1.00;;;;;;5068652;28;20035;-78
2021/05/20 04:12:27;;;;;;;0.90;0.63;;;5.80;1.00;;;;;;5067874;28;20024;-79
2021/05/20 04:14:59;;;;;;;0.13;0.13;;;5.80;1.00;;;;;;5073476;28;20021;-79
2021/05/20 04:17:29;;;;;;;0.03;0.03;;;5.80;1.00;;;;;;5084594;28;20028;-79
2021/05/20 04:20:00;;;;;;;0.00;0.00;;;5.90;1.00;;;;;;5083098;28;20028;-79
2021/05/20 04:22:29;;;;;;;0.00;0.00;;;6.00;1.00;;;;;;5084926;28;20063;-79
2021/05/20 04:24:56;;;;;;;0.20;0.20;;;6.00;1.00;;;;;;5078820;28;20024;-79
2021/05/20 04:27:23;;;;;;;0.38;0.38;;;5.90;1.00;;;;;;5081227;28;20024;-79
2021/05/20 04:29:50;;;;;;;0.00;0.00;;;5.90;1.00;;;;;;5078009;28;20048;-80
2021/05/20 04:32:16;;;;;;;0.10;0.10;;;6.00;1.00;;;;;;5081936;28;20553;-80
2021/05/20 04:34:44;;;;;;;0.00;0.00;;;6.30;99.90;;;;;;5078473;28;20031;-81
2021/05/20 04:37:10;;;;;;;0.10;0.10;;;6.50;99.90;;;;;;5071050;28;20030;-79
2021/05/20 04:39:36;;;;;;;0.10;0.10;;;6.70;99.90;;;;;;5073497;28;20745;-79
2021/05/20 04:42:02;;;;;;;0.10;0.10;;;6.70;99.90;;;;;;5069498;28;20036;-78
2021/05/20 04:44:28;;;;;;;0.10;0.10;;;7.10;99.90;;;;;;5075427;28;20504;-78
2021/05/20 04:46:54;;;;;;;0.10;0.10;;;7.80;99.90;;;;;;5062321;28;20024;-78
2021/05/20 04:49:20;;;;;;;0.10;0.10;;;8.60;99.90;;;;;;5073996;28;20027;-78
2021/05/20 04:51:46;;;;;;;0.10;0.10;;;8.90;99.90;;;;;;5053610;28;20091;-78
2021/05/20 04:54:12;;;;;;;0.10;0.10;;;9.50;99.90;;;;;;5075983;28;20089;-79
2021/05/20 04:56:38;;;;;;;0.10;0.10;;;9.60;99.90;;;;;;5064469;28;20059;-78
2021/05/20 04:59:05;;;;;;;0.80;0.75;;;10.60;99.90;;;;;;5081408;28;20031;-78
2021/05/20 05:01:32;;;;;;;0.10;0.10;;;10.90;99.90;;;;;;5085499;28;20039;-79
2021/05/20 05:03:58;;;;;;;0.10;0.10;;;9.40;99.90;;;;;;5087077;28;20077;-78
2021/05/20 05:06:24;;;;;;;0.10;0.10;;;8.50;99.90;;;;;;5056956;28;20029;-79
2021/05/20 05:08:52;;;;;;;0.10;0.10;;;8.30;99.90;;;;;;5054732;28;20055;-80
2021/05/20 05:11:22;;;;;;;0.10;0.10;;;7.90;99.90;;;;;;5058357;28;20041;-79
2021/05/20 05:13:48;;;;;;;0.10;0.10;;;7.90;99.90;;;;;;5055721;28;20021;-79
2021/05/20 05:16:14;;;;;;;0.10;0.10;;;8.00;99.90;;;;;;5057643;28;20917;-80
2021/05/20 05:18:40;;;;;;;0.20;0.20;;;8.60;99.90;;;;;;5057071;28;20036;-80
2021/05/20 05:21:06;;;;;;;0.10;0.10;;;9.10;99.90;;;;;;5079089;28;20046;-79
2021/05/20 05:23:32;;;;;;;0.03;0.03;;;10.10;99.90;;;;;;5071326;28;20028;-80
2021/05/20 05:25:58;;;;;;;0.10;0.10;;;11.50;99.90;;;;;;5068284;28;20021;-80
2021/05/20 05:28:24;;;;;;;0.10;0.10;;;11.20;99.90;;;;;;5061725;28;20107;-80
2021/05/20 05:30:50;;;;;;;0.10;0.10;;;11.30;99.90;;;;;;5062121;28;20050;-80
2021/05/20 05:33:16;;;;;;;0.00;0.00;;;10.30;99.90;;;;;;5061377;28;20488;-80
2021/05/20 05:35:41;;;;;;;0.10;0.10;;;9.60;99.90;;;;;;5062287;28;20460;-80
2021/05/20 05:38:07;;;;;;;0.10;0.10;;;9.30;99.90;;;;;;5067689;28;20041;-80
2021/05/20 05:40:33;;;;;;;0.10;0.10;;;9.30;99.90;;;;;;5059630;28;20055;-81
2021/05/20 05:42:59;;;;;;;0.15;0.15;;;8.90;99.90;;;;;;5065870;28;20048;-81
2021/05/20 05:45:25;;;;;;;0.10;0.10;;;8.60;99.90;;;;;;5055487;28;20025;-81
2021/05/20 05:47:50;;;;;;;0.10;0.10;;;9.30;99.90;;;;;;5047091;28;20515;-82
2021/05/20 05:50:16;;;;;;;0.10;0.10;;;9.90;99.90;;;;;;5047103;28;20112;-80
2021/05/20 05:52:42;;;;;;;0.10;0.10;;;10.80;99.90;;;;;;5047931;28;20048;-80
2021/05/20 05:55:09;;;;;;;0.00;0.00;;;12.20;99.90;;;;;;5074716;28;20039;-81
2021/05/20 05:57:35;;;;;;;0.00;0.00;;;13.70;99.90;;;;;;5072914;28;20802;-81
2021/05/20 06:00:01;;;;;;;0.10;0.10;;;12.40;99.90;;;;;;5066888;28;20512;-81
2021/05/20 06:02:27;;;;;;;0.00;0.00;;;11.70;99.90;;;;;;5061531;28;20060;-80
2021/05/20 06:04:54;;;;;;;0.10;0.10;;;11.30;99.90;;;;;;5075820;28;20032;-80
2021/05/20 06:07:20;;;;;;;0.10;0.10;;;10.70;99.90;;;;;;5067474;28;20029;-80
2021/05/20 06:09:46;;;;;;;0.00;0.00;;;10.20;99.90;;;;;;5058316;28;20024;-81
2021/05/20 06:12:12;;;;;;;0.10;0.10;;;10.70;99.90;;;;;;5064851;28;20029;-81
2021/05/20 06:14:40;;;;;;;0.10;0.10;;;10.20;99.90;;;;;;5084960;28;20059;-81
2021/05/20 06:17:09;;;;;;;0.60;0.38;;;10.20;99.90;;;;;;5080960;28;20052;-81
2021/05/20 06:19:36;;;;;;;0.10;0.10;;;10.80;99.90;;;;;;5074420;28;20032;-80
2021/05/20 06:22:02;;;;;;;0.83;0.20;;;11.00;99.90;;;;;;5080489;28;20024;-81
2021/05/20 06:24:28;;;;;;;0.00;0.00;;;11.60;99.90;;;;;;5084879;28;20285;-81
2021/05/20 06:26:54;;;;;;;0.20;0.20;;;11.30;99.90;;;;;;5088115;28;20419;-81
2021/05/20 06:29:20;;;;;;;0.00;0.00;;;11.10;99.90;;;;;;5051053;28;20029;-81
2021/05/20 06:31:45;;;;;;;0.10;0.10;;;11.30;99.90;;;;;;5061186;28;20021;-81
2021/05/20 06:34:11;;;;;;;0.00;0.00;;;10.40;99.90;;;;;;5068188;28;20056;-81
2021/05/20 06:36:37;;;;;;;0.10;0.10;;;10.30;99.90;;;;;;5067802;28;20106;-81
2021/05/20 06:39:08;;;;;;;0.10;0.10;;;9.90;99.90;;;;;;5067436;28;20047;-81
2021/05/20 06:41:34;;;;;;;0.52;0.30;;;10.10;99.90;;;;;;5070157;28;20052;-81
2021/05/20 06:43:59;;;;;;;0.10;0.10;;;10.60;99.90;;;;;;5071878;28;20801;-81
2021/05/20 06:46:34;;;;;;;0.13;0.13;;;10.40;99.90;;;;;;5085635;28;20055;-81
2021/05/20 06:49:00;;;;;;;0.00;0.00;;;11.50;99.90;;;;;;5085392;28;20028;-81
2021/05/20 06:51:26;;;;;;;0.10;0.10;;;11.00;99.90;;;;;;5090901;28;20026;-81
2021/05/20 06:53:51;;;;;;;0.20;0.20;;;11.20;99.90;;;;;;5073832;28;20060;-80
2021/05/20 06:56:21;;;;;;;0.00;0.00;;;11.90;99.90;;;;;;5082571;28;20024;-81
2021/05/20 07:01:31;;;;;;;0.10;0.10;;;12.60;99.90;;;;;;5092012;28;20043;-81
2021/05/20 07:03:57;;;;;;;0.00;0.00;;;12.70;99.90;;;;;;5091254;28;20032;-80
2021/05/20 07:06:23;;;;;;;0.00;0.00;;;13.00;99.90;;;;;;5085416;28;20038;-81
2021/05/20 07:08:48;;;;;;;0.10;0.10;;;13.70;99.90;;;;;;5053468;28;20029;-82
2021/05/20 07:11:14;;;;;;;0.10;0.10;;;13.50;99.90;;;;;;5069213;28;20094;-82
2021/05/20 07:13:40;;;;;;;0.23;0.23;;;14.30;99.90;;;;;;5070911;28;20033;-83
2021/05/20 07:16:06;;;;;;;0.05;0.05;;;13.40;99.90;;;;;;5070832;28;20067;-83
2021/05/20 07:18:32;;;;;;;0.00;0.00;;;13.90;99.90;;;;;;5071147;28;20032;-83
2021/05/20 07:20:58;;;;;;;0.00;0.00;;;14.00;99.90;;;;;;5069781;28;20564;-83
2021/05/20 07:23:25;;;;;;;0.27;0.27;;;15.90;99.90;;;;;;5071372;28;20104;-83
2021/05/20 07:25:51;;;;;;;0.00;0.00;;;16.30;99.90;;;;;;5071098;28;20028;-83
2021/05/20 07:28:17;;;;;;;0.00;0.00;;;18.10;99.90;;;;;;5071008;28;20415;-83
2021/05/20 07:30:43;;;;;;;0.10;0.10;;;18.70;99.90;;;;;;5071154;28;20074;-83
2021/05/20 07:33:11;;;;;;;0.00;0.00;;;18.70;99.90;;;;;;5070914;28;20025;-83
2021/05/20 07:35:36;;;;;;;0.00;0.00;;;19.70;99.90;;;;;;5071206;28;20029;-83
2021/05/20 07:38:03;;;;;;;0.00;0.00;;;19.90;99.90;;;;;;5070549;28;20073;-84
2021/05/20 07:40:28;;;;;;;0.00;0.00;;;21.20;99.90;;;;;;5069738;28;20017;-83
2021/05/20 07:42:54;;;;;;;0.00;0.00;;;20.70;99.90;;;;;;5070938;28;20032;-83
2021/05/20 07:45:20;;;;;;;0.07;0.07;;;21.50;99.90;;;;;;5070662;28;20028;-83
2021/05/20 07:47:48;;;;;;;0.00;0.00;;;21.80;99.90;;;;;;5071007;28;20027;-83
2021/05/20 07:50:15;;;;;;;0.00;0.00;;;21.80;99.90;;;;;;5069064;28;20504;-83
2021/05/20 07:52:41;;;;;;;0.00;0.00;;;21.60;99.90;;;;;;5068924;28;20085;-84
2021/05/20 07:55:08;;;;;;;0.00;0.00;;;21.20;99.90;;;;;;5070886;28;20111;-83
2021/05/20 07:57:34;;;;;;;0.00;0.00;;;21.30;99.90;;;;;;5070758;28;20071;-84
2021/05/20 08:00:00;;;;;;;0.10;0.10;;;24.60;99.90;;;;;;5070529;28;20040;-83
2021/05/20 08:04:55;;;;;;;0.00;0.00;;;23.10;99.90;;;;;;5070677;28;20040;-84
2021/05/20 08:10:10;;;;;;;0.00;0.00;;;23.10;99.90;;;;;;5091086;28;20035;-83
2021/05/20 08:12:36;;;;;;;0.00;0.00;;;22.90;99.90;;;;;;5090678;28;20028;-84
2021/05/20 08:15:04;;;;;;;0.00;0.00;;;23.30;99.90;;;;;;5089077;28;20050;-84
2021/05/20 08:17:30;;;;;;;0.00;0.00;;;22.50;99.90;;;;;;5090567;28;20043;-84
2021/05/20 08:19:55;;;;;;;0.00;0.00;;;25.70;99.90;;;;;;5090662;28;20387;-84
2021/05/20 08:22:21;;;;;;;0.00;0.00;;;24.10;99.90;;;;;;5077592;28;20032;-85
2021/05/20 08:24:47;;;;;;;0.00;0.00;;;24.40;99.90;;;;;;5068825;28;20381;-85
2021/05/20 08:27:12;;;;;;;0.00;0.00;;;25.80;99.90;;;;;;5070270;28;20042;-85
2021/05/20 08:29:39;;;;;;;0.13;0.07;;;25.30;99.90;;;;;;5069723;28;20259;-85
2021/05/20 08:32:05;;;;;;;0.00;0.00;;;25.20;99.90;;;;;;5070080;28;20351;-85
2021/05/20 08:34:31;;;;;;;0.00;0.00;;;23.00;99.90;;;;;;5069755;28;20878;-84
2021/05/20 08:36:57;;;;;;;;;;;24.60;99.90;;;;;;5070457;28;20017;-84
2021/05/20 08:39:23;;;;;;;;;;;25.20;99.90;;;;;;5070261;28;19914;-84
2021/05/20 08:41:50;;;;;;;0.00;0.00;;;26.30;98.50;;;;;;5077500;28;19912;-84
2021/05/20 08:44:17;;;;;;;0.00;0.00;;;27.40;97.80;;;;;;5089754;28;20062;-84
2021/05/20 08:46:43;;;;;;;0.10;0.10;;;29.60;95.60;;;;;;5090022;28;20468;-84
2021/05/20 08:49:16;;;;;;;0.10;0.05;;;28.10;94.40;;;;;;5088602;28;20342;-84
2021/05/20 08:51:47;;;;;;;0.00;0.00;;;28.70;95.30;;;;;;5088145;28;20483;-84
2021/05/20 08:54:14;;;;;;;0.00;0.00;;;26.40;99.40;;;;;;5089951;28;20383;-84
2021/05/20 08:56:45;;;;;;;0.00;0.00;;;26.80;96.80;;;;;;5089594;28;20107;-84
2021/05/20 08:59:11;;;;;;;0.00;0.00;;;26.90;97.50;;;;;;5089714;28;20020;-84
2021/05/20 09:01:39;;;;;;;0.00;0.00;;;25.90;98.60;;;;;;5089549;28;20063;-84
2021/05/20 09:04:05;;;;;;;0.00;0.00;;;25.60;94.70;;;;;;5088806;28;20822;-84
2021/05/20 09:06:52;;;;;;;0.00;0.00;;;27.40;93.40;;;;;;5088272;28;20050;-84
2021/05/20 09:09:25;;;;;;;0.00;0.00;;;29.60;92.60;;;;;;5089850;28;20484;-84
2021/05/20 09:11:53;;;;;;;0.00;0.00;;;29.30;91.20;;;;;;5089736;28;20076;-84
2021/05/20 09:14:33;;;;;;;5.65;0.57;;;25.70;96.50;;;;;;5089717;28;20091;-84
2021/05/20 09:17:17;;;;;;;0.28;0.00;;;28.30;91.00;;;;;;5087836;28;20059;-84
2021/05/20 09:19:55;;;;;;;0.00;0.00;;;28.30;87.10;;;;;;5089190;28;20008;-84
2021/05/20 09:22:21;;;;;;;0.00;0.00;;;28.00;92.70;;;;;;5089624;28;20024;-84
2021/05/20 09:24:52;;;;;;;0.00;0.00;;;24.20;91.10;;;;;;5087779;28;20158;-83
2021/05/20 09:27:32;;;;;;;0.00;0.00;;;27.10;92.60;;;;;;5088973;28;20038;-84
2021/05/20 09:30:16;;;;;;;0.20;0.20;;;27.80;88.20;;;;;;5088961;28;20022;-84
2021/05/20 09:32:48;;;;;;;0.28;0.00;;;25.30;92.00;;;;;;5064936;28;20033;-84
2021/05/20 09:35:18;;;;;;;0.22;0.10;;;24.70;92.00;;;;;;5049111;28;20052;-84
2021/05/20 09:37:53;;;;;;;0.00;0.00;;;25.30;87.90;;;;;;5048656;28;20040;-84
2021/05/20 09:40:25;;;;;;;0.00;0.00;;;24.50;90.80;;;;;;5047603;28;20029;-85
2021/05/20 09:42:51;;;;;;;0.30;0.30;;;27.20;95.20;;;;;;5048397;28;20028;-84
2021/05/20 09:45:25;;;;;;;0.10;0.00;;;29.00;81.30;;;;;;5048990;28;20100;-85
2021/05/20 09:47:52;;;;;;;0.00;0.00;;;29.10;84.10;;;;;;5046926;28;20382;-84
2021/05/20 09:50:20;;;;;;;;;;;29.80;74.30;;;;;;5047802;28;20052;-85
2021/05/20 09:52:46;;;;;;;0.00;0.00;;;31.00;73.90;;;;;;5048389;28;20007;-84
2021/05/20 09:55:25;;;;;;;0.00;0.00;;;32.20;68.80;;;;;;5046913;28;20032;-85
2021/05/20 09:57:52;;;;;;;0.00;0.00;;;32.10;65.60;;;;;;5048385;28;20025;-85
2021/05/20 10:00:23;;;;;;;1.10;0.20;;;28.30;80.80;;;;;;5048642;28;20069;-85
2021/05/20 10:03:00;;;;;;;0.00;0.00;;;28.20;75.20;;;;;;5047671;28;20547;-84
2021/05/20 10:05:32;;;;;;;0.00;0.00;;;27.90;70.00;;;;;;5048193;28;20068;-85
2021/05/20 10:08:00;;;;;;;0.00;0.00;;;28.90;72.80;;;;;;5048097;28;20024;-85
2021/05/20 10:10:26;;;;;;;0.10;0.10;;;27.10;75.40;;;;;;5048543;28;20063;-84
2021/05/20 10:12:52;;;;;;;0.00;0.00;;;25.00;75.30;;;;;;5046486;28;20032;-84
2021/05/20 10:15:21;;;;;;;0.00;0.00;;;25.20;74.40;;;;;;5047582;28;20056;-84
2021/05/20 10:17:47;;;;;;;0.03;0.00;;;26.00;76.00;;;;;;5047994;28;20067;-84
2021/05/20 10:20:18;;;;;;;;;;;25.00;82.00;;;;;;5046864;28;20032;-84
2021/05/20 10:22:44;;;;;;;0.00;0.00;;;26.20;78.40;;;;;;5047976;28;19909;-84
2021/05/20 10:25:12;;;;;;;0.20;0.20;;;26.40;75.50;;;;;;5046423;28;20116;-84
2021/05/20 10:27:39;;;;;;;0.00;0.00;;;27.00;74.30;;;;;;5048007;28;20059;-85
2021/05/20 10:30:08;;;;;;;0.00;0.00;;;26.20;78.00;;;;;;5047634;28;20021;-84
2021/05/20 10:32:35;;;;;;;0.00;0.00;;;26.20;77.30;;;;;;5046718;28;20078;-84
2021/05/20 10:35:09;;;;;;;0.00;0.00;;;27.80;72.50;;;;;;5047971;28;20492;-84
2021/05/20 10:37:37;;;;;;;0.00;0.00;;;28.60;67.60;;;;;;5046631;28;20079;-84
2021/05/20 10:40:08;;;;;;;0.30;0.30;;;27.30;70.40;;;;;;5046636;28;20025;-84
2021/05/20 10:42:42;;;;;;;0.00;0.00;;;24.40;83.70;;;;;;5046615;28;20036;-84
2021/05/20 10:45:22;;;;;;;0.00;0.00;;;23.90;83.70;;;;;;5046502;28;20032;-84
2021/05/20 10:48:03;;;;;;;0.17;0.00;;;24.60;78.70;;;;;;5046725;28;20104;-84
2021/05/20 10:50:51;;;;;;;0.00;0.00;;;26.20;76.40;;;;;;5048037;28;20384;-85
2021/05/20 10:53:41;;;;;;;0.00;0.00;;;26.20;73.30;;;;;;5047515;28;20044;-83
2021/05/20 10:56:09;;;;;;;0.43;0.15;;;23.70;75.60;;;;;;5047750;28;20036;-83
2021/05/20 10:58:36;;;;;;;0.00;0.00;;;22.80;76.70;;;;;;5048040;28;20037;-84
2021/05/20 11:01:08;;;;;;;0.00;0.00;;;26.50;73.50;;;;;;5047944;28;20021;-84
2021/05/20 11:03:55;;;;;;;0.00;0.00;;;25.50;80.50;;;;;;5047590;28;20029;-83
2021/05/20 11:06:34;;;;;;;0.00;0.00;;;26.60;79.70;;;;;;5047470;28;20404;-83
2021/05/20 11:09:00;;;;;;;0.05;0.05;;;27.30;75.80;;;;;;5046480;28;20094;-84
2021/05/20 11:11:32;;;;;;;0.10;0.10;;;28.50;70.00;;;;;;5047663;28;20025;-84
2021/05/20 11:13:59;;;;;;;0.52;0.35;;;25.00;72.90;;;;;;5046244;28;20112;-84
2021/05/20 11:16:30;;;;;;;0.20;0.20;;;26.10;79.50;;;;;;5047228;28;20520;-84
2021/05/20 11:19:18;;;;;;;0.00;0.00;;;26.10;80.60;;;;;;5047665;28;20581;-84
2021/05/20 11:21:59;;;;;;;0.73;0.60;;;26.50;76.50;;;;;;5047625;28;20100;-84
2021/05/20 11:24:27;;;;;;;0.00;0.00;;;23.30;80.20;;;;;;5045912;28;20037;-84
2021/05/20 11:27:04;;;;;;;0.00;0.00;;;23.70;80.40;;;;;;5049508;28;20018;-84
2021/05/20 11:29:30;;;;;;;;;;;22.60;83.70;;;;;;5051350;28;20043;-84
2021/05/20 11:32:02;;;;;;;0.00;0.00;;;22.80;80.30;;;;;;5056802;28;19908;-84
2021/05/20 11:37:39;;;;;;;0.05;0.00;;;22.60;83.30;;;;;;5071252;28;20046;-84
2021/05/20 11:40:07;;;;;;;0.00;0.00;;;21.80;80.90;;;;;;5069726;28;20119;-84
2021/05/20 11:42:33;;;;;;;0.00;0.00;;;22.80;82.00;;;;;;5071147;28;20024;-84
2021/05/20 11:45:01;;;;;;;1.65;0.38;;;22.60;80.60;;;;;;5070851;28;20032;-84
2021/05/20 11:47:27;;;;;;;0.00;0.00;;;21.40;81.00;;;;;;5070811;28;20037;-84
2021/05/20 11:49:53;;;;;;;;;;;21.50;83.30;;;;;;5071469;28;20073;-84
2021/05/20 11:52:21;;;;;;;0.00;0.00;;;20.90;84.40;;;;;;5071121;28;19904;-84
2021/05/20 11:54:51;;;;;;;1.45;0.28;;;20.30;86.00;;;;;;5069436;28;20522;-83
2021/05/20 11:57:25;;;;;;;0.00;0.00;;;19.20;87.10;;;;;;5070787;28;20115;-84
2021/05/20 11:59:53;;;;;;;0.00;0.00;;;19.50;87.80;;;;;;5070763;28;20515;-84
2021/05/20 12:02:21;;;;;;;0.10;0.10;;;19.50;86.80;;;;;;5071168;28;20069;-84
2021/05/20 12:04:48;;;;;;;0.17;0.17;;;19.20;89.80;;;;;;5069324;28;20040;-84
2021/05/20 12:07:33;;;;;;;0.10;0.10;;;19.20;90.60;;;;;;5071113;28;20048;-84
2021/05/20 12:10:11;;;;;;;0.00;0.00;;;19.50;91.30;;;;;;5070687;28;20111;-84
2021/05/20 12:12:38;;;;;;;0.00;0.00;;;20.00;91.00;;;;;;5070844;28;20029;-84
2021/05/20 12:15:15;;;;;;;0.10;0.10;;;19.90;90.80;;;;;;5070349;28;20109;-84
2021/05/20 12:17:41;;;;;;;0.08;0.08;;;20.00;90.10;;;;;;5069262;28;20111;-84
2021/05/20 12:20:08;;;;;;;0.00;0.00;;;19.50;88.70;;;;;;5070806;28;20039;-84
2021/05/20 12:22:34;;;;;;;;;;;19.60;90.80;;;;;;5071077;28;20035;-84
2021/05/20 12:25:07;;;;;;;0.00;0.00;;;19.60;90.00;;;;;;5070234;28;19963;-84
2021/05/20 12:27:35;;;;;;;0.00;0.00;;;19.30;89.30;;;;;;5070630;28;20025;-84
2021/05/20 12:30:04;;;;;;;0.00;0.00;;;19.40;88.80;;;;;;5070066;28;20027;-84
2021/05/20 12:32:36;;;;;;;0.00;0.00;;;19.30;89.50;;;;;;5070497;28;20020;-84
2021/05/20 12:35:08;;;;;;;0.00;0.00;;;19.70;89.70;;;;;;5069976;28;20140;-84
2021/05/20 12:37:43;;;;;;;0.00;0.00;;;19.20;89.30;;;;;;5069972;28;20032;-84
2021/05/20 12:40:32;;;;;;;0.00;0.00;;;19.00;90.70;;;;;;5069736;28;20492;-83
2021/05/20 12:43:05;;;;;;;0.00;0.00;;;19.50;90.00;;;;;;5042490;28;20064;-84
2021/05/20 12:45:34;;;;;;;0.00;0.00;;;19.50;92.20;;;;;;5070092;28;20032;-84
2021/05/20 12:48:00;;;;;;;0.00;0.00;;;19.30;91.10;;;;;;5069358;28;20119;-84
2021/05/20 12:50:37;;;;;;;0.00;0.00;;;18.90;90.30;;;;;;5068430;28;20395;-84
2021/05/20 12:53:03;;;;;;;0.00;0.00;;;18.90;92.00;;;;;;5069672;28;20442;-84
2021/05/20 12:55:30;;;;;;;0.00;0.00;;;19.30;91.30;;;;;;5069952;28;20024;-84
2021/05/20 12:57:59;;;;;;;0.00;0.00;;;18.70;91.50;;;;;;5069628;28;20064;-84
2021/05/20 13:00:29;;;;;;;0.13;0.13;;;18.60;90.10;;;;;;5069863;28;20413;-84
2021/05/20 13:03:02;;;;;;;0.00;0.00;;;18.60;90.10;;;;;;5069385;28;20036;-83
2021/05/20 13:05:28;;;;;;;0.00;0.00;;;18.70;90.80;;;;;;5068315;28;20025;-84
2021/05/20 13:07:56;;;;;;;0.00;0.00;;;18.60;90.90;;;;;;5069728;28;20024;-83
2021/05/20 13:10:34;;;;;;;0.00;0.00;;;18.40;90.70;;;;;;5069635;28;20078;-83
2021/05/20 13:13:00;;;;;;;0.00;0.00;;;18.60;90.70;;;;;;5067883;28;20086;-83